Main page
METAR-TAF:

METAR-TAF

Airports :

Kulusuk Airport

Kulusuk, Greenland

latitude: 65-35N, longitude: 037-09W, elevation: 35 m

Current weather observation

The report was made 28 minutes ago, at 17:50 UTC
Calm wind
Temperature -6°C
Humidity 58%
Pressure 998 hPa
Visibility 10 km or more
Few clouds at a height of 7000 ft

METAR: BGKK 061750Z 00000KT 9999 FEW070 M06/M13 Q0998

Time: 15:18 (18:18 UTC)

Forecast

The report was made 3 hours and 57 minutes ago, at 14:21 UTC
Forecast valid from 06 at 15 UTC to 06 at 20 UTC
Wind 7 kt from the West/Southwest
Visibility 10 km or more
Scattered clouds at a height of 7000 ft
Temporary
from 06 at 15 UTC to 06 at 20 UTC
Broken clouds at a height of 7000 ft

TAF: BGKK 061421Z 0615/0620 24007KT 9999 SCT070 TEMPO 0615/0620 BKN070

Weather observations and forecasts of more than 4000 airports (METAR and TAF reports).

The available stations are represented by yellow and red dots on the map.

Hover mouse over dot to see the name of the station.

Then click to see weather observations and forecasts.

To change the map : click on the green buttons with a black cross to zoom in, on the green button with a dash to zoom out, or on the green arrows for adjacent maps.


METAR-TAF: